LDPL/PUY METAR and TAF weather

Enter ICAO airport designator
Station Type Date Time Source
LDPL METAR 2019/08/19 07:30 UTC NOAA

LDPL 190730Z 10007KT CAVOK 26/16 Q1016 NOSIG


Station Type Date Time Source
LDPL Decoded METAR 2019/08/19 07:30 UTC NOAA

Station name not available
Aug 19, 2019 - 03:30 AM EDT / 2019.08.19 0730 UTC
Wind: from the E (100 degrees) at 8 MPH (7 KT):0
Visibility: greater than 7 mile(s):0
Temperature: 78 F (26 C)
Dew Point: 60 F (16 C)
Relative Humidity: 54%
Pressure (altimeter): 30.00 in. Hg (1016 hPa)
ob: LDPL 190730Z 10007KT CAVOK 26/16 Q1016 NOSIG
cycle: 7

Station Type Date Time Source
LDPL TAF 2019/08/19 06:27 UTC NOAA

TAF LDPL 190525Z 1906/2006 09008KT CAVOK TX30/1913Z TN19/2002Z
BECMG 1908/1910 13006KT PROB30
TEMPO 1910/1915 24008KT

Example: see airport list